createdAt,value
2018-02-22T00:05:51.613Z,49.17
2018-02-22T00:09:22.521Z,44.93
2018-02-22T00:12:07.282Z,47.90
2018-02-22T00:21:31.637Z,47.30
2018-02-22T00:24:35.514Z,44.30
2018-02-22T00:27:28.772Z,42.00
2018-02-22T00:46:02.394Z,48.13
2018-02-22T00:48:58.084Z,48.67
2018-02-22T00:51:52.753Z,49.43
2018-02-22T00:54:41.230Z,45.70
2018-02-22T00:57:28.095Z,54.33
2018-02-22T01:00:09.503Z,50.40
2018-02-22T01:02:48.866Z,47.77
2018-02-22T01:05:48.678Z,48.13
2018-02-22T01:08:55.838Z,43.78
2018-02-22T01:11:46.945Z,44.87
2018-02-22T01:17:41.538Z,42.03
2018-02-22T01:20:26.877Z,46.87
2018-02-22T01:23:11.950Z,43.27
2018-02-22T01:26:04.669Z,36.73
2018-02-22T01:31:31.239Z,50.40
2018-02-22T01:34:28.828Z,41.47
2018-02-22T01:37:27.439Z,39.60
2018-02-22T01:40:21.950Z,44.50
2018-02-22T01:43:01.158Z,43.00
2018-02-22T01:45:41.358Z,42.00
2018-02-22T01:48:31.560Z,47.67
2018-02-22T01:51:16.832Z,53.23
2018-02-22T01:54:14.411Z,49.37
2018-02-22T01:56:54.485Z,43.60
2018-02-22T01:59:35.058Z,40.97
2018-02-22T02:02:17.045Z,40.50
2018-02-22T02:05:13.071Z,52.07
2018-02-22T02:07:53.181Z,36.97
2018-02-22T02:11:02.311Z,44.67
2018-02-22T02:13:52.572Z,51.57
2018-02-22T02:16:34.225Z,36.23
2018-02-22T02:35:11.853Z,44.38
2018-02-22T02:37:56.050Z,42.30
2018-02-22T02:40:43.206Z,46.50
2018-02-22T02:43:24.356Z,47.43
2018-02-22T02:46:11.242Z,40.17
2018-02-22T02:49:33.915Z,39.83
2018-02-22T02:52:28.136Z,42.37
2018-02-22T02:55:11.260Z,43.17
2018-02-22T03:03:37.679Z,36.63
2018-02-22T03:06:16.886Z,43.93
2018-02-22T03:08:55.937Z,40.50
2018-02-22T03:11:37.029Z,48.90
2018-02-22T03:14:14.479Z,38.37
2018-02-22T03:20:01.479Z,38.80
2018-02-22T03:22:45.105Z,43.70
2018-02-22T03:25:27.774Z,37.17
2018-02-22T03:28:10.274Z,40.80
2018-02-22T03:33:59.977Z,40.20
2018-02-22T03:36:46.832Z,34.97
2018-02-22T03:39:26.911Z,40.58
2018-02-22T03:42:05.457Z,45.50
2018-02-22T03:45:13.147Z,44.70
2018-02-22T03:48:04.470Z,39.40
2018-02-22T03:50:50.103Z,35.03
2018-02-22T03:59:19.276Z,39.60
2018-02-22T04:08:21.069Z,33.77
2018-02-22T04:11:03.779Z,38.47
2018-02-22T04:13:46.911Z,41.10
2018-02-22T04:16:40.705Z,38.30
2018-02-22T04:19:23.469Z,40.80
2018-02-22T04:22:04.146Z,39.50
2018-02-22T04:24:52.446Z,41.20
2018-02-22T04:27:44.429Z,31.70
2018-02-22T04:30:32.365Z,39.17
2018-02-22T04:33:17.295Z,36.70
2018-02-22T04:36:06.807Z,37.20
2018-02-22T04:38:52.908Z,42.77
2018-02-22T04:41:47.040Z,41.47
2018-02-22T04:44:29.145Z,33.43
2018-02-22T05:03:16.506Z,46.27
2018-02-22T05:06:07.366Z,41.35
2018-02-22T05:08:53.982Z,40.63
2018-02-22T05:11:44.906Z,41.40
2018-02-22T05:14:38.365Z,41.57
2018-02-22T05:17:25.450Z,41.57
2018-02-22T05:20:24.445Z,42.70
2018-02-22T09:23:49.210Z,28.87
2018-02-22T09:27:17.939Z,37.50
2018-02-22T09:33:35.591Z,33.83
2018-02-22T09:57:35.904Z,34.03
2018-02-22T10:01:06.552Z,35.20
2018-02-22T10:12:15.540Z,31.10
2018-02-22T10:22:36.350Z,26.70
2018-02-22T10:25:55.311Z,30.30
2018-02-22T11:42:27.558Z,14.23
2018-02-22T11:52:48.028Z,27.13
2018-02-22T12:45:38.416Z,12.43
2018-02-22T13:14:39.671Z,13.20
2018-02-22T13:36:16.299Z,12.53
2018-02-22T21:19:09.720Z,26.23
2018-02-22T21:42:34.995Z,27.07
2018-02-22T22:42:32.836Z,34.67
2018-02-22T22:45:59.569Z,28.63
2018-02-22T22:49:07.675Z,35.00
2018-02-22T22:55:00.010Z,32.13
2018-02-22T23:00:57.528Z,34.43
2018-02-22T23:04:10.019Z,30.10
2018-02-22T23:06:56.198Z,27.53
2018-02-22T23:09:48.730Z,32.60
2018-02-22T23:15:46.170Z,29.03
2018-02-22T23:19:22.252Z,37.10
2018-02-22T23:25:41.049Z,33.80
2018-02-22T23:28:28.703Z,40.50
2018-02-22T23:45:04.847Z,35.53
2018-02-22T23:48:07.223Z,31.37
2018-02-22T23:50:54.367Z,60.17
2018-02-22T23:53:43.496Z,26.43
2018-02-22T23:56:50.697Z,30.67
2018-02-22T23:59:46.451Z,33.43
